Fancher, Illinois
Current Conditions -  °F | °C
As of 2:15 PM on Friday 31 Oct 2014 (Local Time) from K1H2 Reporting Station
Overcast Overcast  
Wind Chill: 34°   Ceiling: 4800
Heat Index: 43°   Visibility: 10mi
Dew Point: 25°   Wind: 23mph
Humidity: 49%   Direction: 320°NW
Pressure: 30.18"   Gusts: 29mph
Location:  39.2654°N, 88.7413°W
Report Text: K1H2 311915Z AUTO 32020G25KT 10SM SCT042 OVC048 06/M04 A3018 RMK AO2 T00601040
Loading
Personal Weather Stations






























Interactive Weather Map
Tropical Storm Tracking
New forecast layout! Learn more

10-Day Weather Forecast

Advertisements
Track Severe Weather on mobile